Glogow, Poland
Current Conditions -  °F | °C
As of 7:00 AM on Wednesday 26 Nov 2014 (Local Time) from EPZG Reporting Station
Moderate Fog Moderate Fog  
Wind Chill: 39°   Ceiling: 100
Heat Index: 39°   Visibility: 0.21mi
Dew Point: 39°   Wind: 3mph
Humidity: 100%   Direction: 30°NNE
Pressure: 30.3"   Gusts: NA
Location:  51.67°N, 16.08°E
Report Text: EPZG 260500Z 03003KT 0350 R24/1200N FG OVC001 04/04 Q1026
Loading
Personal Weather Stations






























Interactive Weather Map New forecast layout! Learn more

10-Day Weather Forecast

Advertisements
Track Severe Weather on mobile